sensor_id;sensor_type;location;lat;lon;timestamp;P1;durP1;ratioP1;P2;durP2;ratioP2
60847;SDS011;46681;47.696;9.140;2023-04-25T00:01:18;3.27;;;2.00;;
60847;SDS011;46681;47.696;9.140;2023-04-25T00:03:44;2.77;;;2.50;;
60847;SDS011;46681;47.696;9.140;2023-04-25T00:06:09;2.50;;;1.90;;
60847;SDS011;46681;47.696;9.140;2023-04-25T00:08:35;4.63;;;2.30;;
60847;SDS011;46681;47.696;9.140;2023-04-25T00:11:04;2.33;;;2.13;;
60847;SDS011;46681;47.696;9.140;2023-04-25T00:13:29;2.43;;;2.20;;
60847;SDS011;46681;47.696;9.140;2023-04-25T00:15:55;2.93;;;2.07;;
60847;SDS011;46681;47.696;9.140;2023-04-25T00:18:21;2.03;;;1.90;;
60847;SDS011;46681;47.696;9.140;2023-04-25T00:20:46;2.30;;;2.10;;
60847;SDS011;46681;47.696;9.140;2023-04-25T00:23:13;2.10;;;1.90;;
60847;SDS011;46681;47.696;9.140;2023-04-25T00:25:39;3.03;;;2.10;;
60847;SDS011;46681;47.696;9.140;2023-04-25T00:28:04;3.13;;;2.40;;
60847;SDS011;46681;47.696;9.140;2023-04-25T00:30:30;2.57;;;2.30;;
60847;SDS011;46681;47.696;9.140;2023-04-25T00:32:55;2.27;;;2.03;;
60847;SDS011;46681;47.696;9.140;2023-04-25T00:35:21;2.10;;;2.00;;
60847;SDS011;46681;47.696;9.140;2023-04-25T00:37:46;3.23;;;2.10;;
60847;SDS011;46681;47.696;9.140;2023-04-25T00:40:13;2.53;;;2.10;;
60847;SDS011;46681;47.696;9.140;2023-04-25T00:42:39;2.10;;;1.97;;
60847;SDS011;46681;47.696;9.140;2023-04-25T00:45:05;2.60;;;2.00;;
60847;SDS011;46681;47.696;9.140;2023-04-25T00:47:38;2.87;;;2.00;;
60847;SDS011;46681;47.696;9.140;2023-04-25T00:50:05;2.27;;;1.80;;
60847;SDS011;46681;47.696;9.140;2023-04-25T00:52:33;2.80;;;2.60;;
60847;SDS011;46681;47.696;9.140;2023-04-25T00:55:00;3.63;;;2.10;;
60847;SDS011;46681;47.696;9.140;2023-04-25T00:57:28;1.93;;;1.83;;
60847;SDS011;46681;47.696;9.140;2023-04-25T00:59:54;2.70;;;2.50;;
60847;SDS011;46681;47.696;9.140;2023-04-25T01:02:20;1.90;;;1.80;;
60847;SDS011;46681;47.696;9.140;2023-04-25T01:04:46;4.73;;;2.50;;
60847;SDS011;46681;47.696;9.140;2023-04-25T01:07:13;2.20;;;2.10;;
60847;SDS011;46681;47.696;9.140;2023-04-25T01:09:39;3.20;;;2.00;;
60847;SDS011;46681;47.696;9.140;2023-04-25T01:12:05;2.23;;;2.10;;
60847;SDS011;46681;47.696;9.140;2023-04-25T01:14:30;2.07;;;1.97;;
60847;SDS011;46681;47.696;9.140;2023-04-25T01:16:56;2.83;;;2.27;;
60847;SDS011;46681;47.696;9.140;2023-04-25T01:19:22;2.47;;;2.27;;
60847;SDS011;46681;47.696;9.140;2023-04-25T01:21:48;2.87;;;2.07;;
60847;SDS011;46681;47.696;9.140;2023-04-25T01:24:13;3.43;;;1.80;;
60847;SDS011;46681;47.696;9.140;2023-04-25T01:26:40;2.57;;;2.00;;
60847;SDS011;46681;47.696;9.140;2023-04-25T01:29:07;4.57;;;1.97;;
60847;SDS011;46681;47.696;9.140;2023-04-25T01:31:34;2.00;;;1.80;;
60847;SDS011;46681;47.696;9.140;2023-04-25T01:34:00;2.87;;;2.03;;
60847;SDS011;46681;47.696;9.140;2023-04-25T01:36:26;3.33;;;1.90;;
60847;SDS011;46681;47.696;9.140;2023-04-25T01:38:51;2.43;;;1.77;;
60847;SDS011;46681;47.696;9.140;2023-04-25T01:41:17;2.20;;;2.00;;
60847;SDS011;46681;47.696;9.140;2023-04-25T01:43:43;2.07;;;1.87;;
60847;SDS011;46681;47.696;9.140;2023-04-25T01:46:09;1.90;;;1.80;;
60847;SDS011;46681;47.696;9.140;2023-04-25T01:48:36;1.97;;;1.77;;
60847;SDS011;46681;47.696;9.140;2023-04-25T01:51:01;1.53;;;1.43;;
60847;SDS011;46681;47.696;9.140;2023-04-25T01:53:27;2.13;;;2.00;;
60847;SDS011;46681;47.696;9.140;2023-04-25T01:55:53;2.27;;;1.80;;
60847;SDS011;46681;47.696;9.140;2023-04-25T01:58:18;2.13;;;1.80;;
60847;SDS011;46681;47.696;9.140;2023-04-25T02:00:44;2.03;;;1.83;;
60847;SDS011;46681;47.696;9.140;2023-04-25T02:03:09;3.20;;;1.90;;
60847;SDS011;46681;47.696;9.140;2023-04-25T02:08:10;1.93;;;1.70;;
60847;SDS011;46681;47.696;9.140;2023-04-25T02:10:41;3.27;;;1.70;;
60847;SDS011;46681;47.696;9.140;2023-04-25T02:13:07;2.30;;;2.17;;
60847;SDS011;46681;47.696;9.140;2023-04-25T02:15:37;1.90;;;1.80;;
60847;SDS011;46681;47.696;9.140;2023-04-25T02:18:14;1.77;;;1.67;;
60847;SDS011;46681;47.696;9.140;2023-04-25T02:20:39;2.20;;;2.00;;
60847;SDS011;46681;47.696;9.140;2023-04-25T02:23:07;1.70;;;1.60;;
60847;SDS011;46681;47.696;9.140;2023-04-25T02:25:37;1.90;;;1.80;;
60847;SDS011;46681;47.696;9.140;2023-04-25T02:28:08;2.63;;;2.10;;
60847;SDS011;46681;47.696;9.140;2023-04-25T02:30:33;1.70;;;1.60;;
60847;SDS011;46681;47.696;9.140;2023-04-25T02:33:02;2.03;;;1.80;;
60847;SDS011;46681;47.696;9.140;2023-04-25T02:35:27;2.00;;;1.80;;
60847;SDS011;46681;47.696;9.140;2023-04-25T02:37:54;1.83;;;1.73;;
60847;SDS011;46681;47.696;9.140;2023-04-25T02:40:25;2.10;;;2.00;;
60847;SDS011;46681;47.696;9.140;2023-04-25T02:42:52;2.00;;;1.70;;
60847;SDS011;46681;47.696;9.140;2023-04-25T02:45:21;3.20;;;2.00;;
60847;SDS011;46681;47.696;9.140;2023-04-25T02:47:46;2.63;;;1.73;;
60847;SDS011;46681;47.696;9.140;2023-04-25T02:50:13;1.70;;;1.60;;
60847;SDS011;46681;47.696;9.140;2023-04-25T02:52:49;3.17;;;2.30;;
60847;SDS011;46681;47.696;9.140;2023-04-25T02:55:15;2.07;;;1.97;;
60847;SDS011;46681;47.696;9.140;2023-04-25T02:57:45;4.03;;;3.03;;
60847;SDS011;46681;47.696;9.140;2023-04-25T03:00:10;2.00;;;1.90;;
60847;SDS011;46681;47.696;9.140;2023-04-25T03:02:37;2.10;;;1.90;;
60847;SDS011;46681;47.696;9.140;2023-04-25T03:05:07;2.33;;;1.87;;
60847;SDS011;46681;47.696;9.140;2023-04-25T03:07:32;2.00;;;1.90;;
60847;SDS011;46681;47.696;9.140;2023-04-25T03:10:00;1.93;;;1.77;;
60847;SDS011;46681;47.696;9.140;2023-04-25T03:12:26;2.07;;;1.90;;
60847;SDS011;46681;47.696;9.140;2023-04-25T03:14:54;2.00;;;1.83;;
60847;SDS011;46681;47.696;9.140;2023-04-25T03:17:25;1.63;;;1.53;;
60847;SDS011;46681;47.696;9.140;2023-04-25T03:19:51;3.30;;;1.87;;
60847;SDS011;46681;47.696;9.140;2023-04-25T03:22:16;2.90;;;1.90;;
60847;SDS011;46681;47.696;9.140;2023-04-25T03:24:48;2.40;;;2.20;;
60847;SDS011;46681;47.696;9.140;2023-04-25T03:27:14;2.13;;;1.90;;
60847;SDS011;46681;47.696;9.140;2023-04-25T03:29:42;1.90;;;1.80;;
60847;SDS011;46681;47.696;9.140;2023-04-25T03:32:08;2.83;;;1.90;;
60847;SDS011;46681;47.696;9.140;2023-04-25T03:34:36;3.43;;;2.30;;
60847;SDS011;46681;47.696;9.140;2023-04-25T03:37:01;2.90;;;1.90;;
60847;SDS011;46681;47.696;9.140;2023-04-25T03:39:31;1.90;;;1.63;;
60847;SDS011;46681;47.696;9.140;2023-04-25T03:41:56;1.90;;;1.80;;
60847;SDS011;46681;47.696;9.140;2023-04-25T03:44:25;2.53;;;2.00;;
60847;SDS011;46681;47.696;9.140;2023-04-25T03:46:53;3.10;;;1.80;;
60847;SDS011;46681;47.696;9.140;2023-04-25T03:49:24;2.13;;;1.77;;
60847;SDS011;46681;47.696;9.140;2023-04-25T03:51:59;2.33;;;2.13;;
60847;SDS011;46681;47.696;9.140;2023-04-25T03:54:25;2.17;;;1.97;;
60847;SDS011;46681;47.696;9.140;2023-04-25T03:56:58;2.57;;;2.23;;
60847;SDS011;46681;47.696;9.140;2023-04-25T04:02:04;1.93;;;1.80;;
60847;SDS011;46681;47.696;9.140;2023-04-25T04:04:55;2.33;;;1.90;;
60847;SDS011;46681;47.696;9.140;2023-04-25T04:07:23;2.20;;;2.00;;
60847;SDS011;46681;47.696;9.140;2023-04-25T04:09:52;2.20;;;2.00;;
60847;SDS011;46681;47.696;9.140;2023-04-25T04:12:18;3.67;;;1.93;;
60847;SDS011;46681;47.696;9.140;2023-04-25T04:14:43;2.40;;;2.20;;
60847;SDS011;46681;47.696;9.140;2023-04-25T04:17:13;2.80;;;2.30;;
60847;SDS011;46681;47.696;9.140;2023-04-25T04:19:39;2.63;;;2.43;;
60847;SDS011;46681;47.696;9.140;2023-04-25T04:22:07;2.43;;;2.23;;
60847;SDS011;46681;47.696;9.140;2023-04-25T04:24:35;2.13;;;1.90;;
60847;SDS011;46681;47.696;9.140;2023-04-25T04:27:03;2.60;;;2.40;;
60847;SDS011;46681;47.696;9.140;2023-04-25T04:29:34;5.33;;;3.27;;
60847;SDS011;46681;47.696;9.140;2023-04-25T04:32:05;3.30;;;3.03;;
60847;SDS011;46681;47.696;9.140;2023-04-25T04:37:30;3.23;;;2.93;;
60847;SDS011;46681;47.696;9.140;2023-04-25T04:43:07;3.40;;;3.10;;
60847;SDS011;46681;47.696;9.140;2023-04-25T04:45:38;3.27;;;2.97;;
60847;SDS011;46681;47.696;9.140;2023-04-25T04:48:17;2.53;;;2.33;;
60847;SDS011;46681;47.696;9.140;2023-04-25T04:50:51;3.20;;;3.00;;
60847;SDS011;46681;47.696;9.140;2023-04-25T04:53:36;2.90;;;2.70;;
60847;SDS011;46681;47.696;9.140;2023-04-25T04:56:30;2.57;;;2.37;;
60847;SDS011;46681;47.696;9.140;2023-04-25T05:02:10;3.60;;;2.70;;
60847;SDS011;46681;47.696;9.140;2023-04-25T05:05:06;2.97;;;2.53;;
60847;SDS011;46681;47.696;9.140;2023-04-25T05:08:02;3.00;;;2.80;;
60847;SDS011;46681;47.696;9.140;2023-04-25T05:10:33;2.40;;;2.20;;
60847;SDS011;46681;47.696;9.140;2023-04-25T05:13:08;5.90;;;2.60;;
60847;SDS011;46681;47.696;9.140;2023-04-25T05:16:03;3.83;;;2.33;;
60847;SDS011;46681;47.696;9.140;2023-04-25T05:18:39;2.73;;;2.50;;
60847;SDS011;46681;47.696;9.140;2023-04-25T05:24:35;2.23;;;2.10;;
60847;SDS011;46681;47.696;9.140;2023-04-25T05:27:21;2.43;;;2.13;;
60847;SDS011;46681;47.696;9.140;2023-04-25T05:32:45;2.67;;;2.23;;
60847;SDS011;46681;47.696;9.140;2023-04-25T05:35:27;5.57;;;2.50;;
60847;SDS011;46681;47.696;9.140;2023-04-25T05:38:29;3.97;;;2.20;;
60847;SDS011;46681;47.696;9.140;2023-04-25T05:41:00;4.00;;;2.30;;
60847;SDS011;46681;47.696;9.140;2023-04-25T05:43:51;2.03;;;1.87;;
60847;SDS011;46681;47.696;9.140;2023-04-25T05:46:25;2.43;;;2.33;;
60847;SDS011;46681;47.696;9.140;2023-04-25T05:48:55;4.27;;;2.40;;
60847;SDS011;46681;47.696;9.140;2023-04-25T05:51:31;2.93;;;2.07;;
60847;SDS011;46681;47.696;9.140;2023-04-25T05:54:07;2.30;;;2.20;;
60847;SDS011;46681;47.696;9.140;2023-04-25T05:56:58;2.77;;;1.87;;
60847;SDS011;46681;47.696;9.140;2023-04-25T05:59:37;2.23;;;2.07;;
60847;SDS011;46681;47.696;9.140;2023-04-25T06:02:22;2.30;;;2.10;;
60847;SDS011;46681;47.696;9.140;2023-04-25T06:08:37;2.57;;;1.73;;
60847;SDS011;46681;47.696;9.140;2023-04-25T06:11:21;2.40;;;2.20;;
60847;SDS011;46681;47.696;9.140;2023-04-25T06:13:58;3.40;;;2.07;;
60847;SDS011;46681;47.696;9.140;2023-04-25T06:16:27;5.20;;;2.80;;
60847;SDS011;46681;47.696;9.140;2023-04-25T06:19:37;5.07;;;1.97;;
60847;SDS011;46681;47.696;9.140;2023-04-25T06:25:28;3.60;;;1.93;;
60847;SDS011;46681;47.696;9.140;2023-04-25T06:28:05;2.90;;;2.13;;
60847;SDS011;46681;47.696;9.140;2023-04-25T06:30:36;7.50;;;2.40;;
60847;SDS011;46681;47.696;9.140;2023-04-25T06:33:12;3.90;;;2.13;;
60847;SDS011;46681;47.696;9.140;2023-04-25T06:36:11;3.77;;;2.60;;
60847;SDS011;46681;47.696;9.140;2023-04-25T06:39:01;4.27;;;2.57;;
60847;SDS011;46681;47.696;9.140;2023-04-25T06:45:06;3.67;;;2.40;;
60847;SDS011;46681;47.696;9.140;2023-04-25T06:47:40;4.60;;;2.60;;
60847;SDS011;46681;47.696;9.140;2023-04-25T06:50:23;2.93;;;2.43;;
60847;SDS011;46681;47.696;9.140;2023-04-25T06:53:03;2.77;;;2.37;;
60847;SDS011;46681;47.696;9.140;2023-04-25T06:55:37;2.37;;;2.17;;
60847;SDS011;46681;47.696;9.140;2023-04-25T07:01:18;2.53;;;2.23;;
60847;SDS011;46681;47.696;9.140;2023-04-25T07:04:10;2.97;;;2.37;;
60847;SDS011;46681;47.696;9.140;2023-04-25T07:06:55;2.93;;;2.33;;
60847;SDS011;46681;47.696;9.140;2023-04-25T07:09:36;4.97;;;2.23;;
60847;SDS011;46681;47.696;9.140;2023-04-25T07:12:23;4.17;;;2.83;;
60847;SDS011;46681;47.696;9.140;2023-04-25T07:18:12;6.03;;;2.33;;
60847;SDS011;46681;47.696;9.140;2023-04-25T07:21:13;6.80;;;2.40;;
60847;SDS011;46681;47.696;9.140;2023-04-25T07:24:15;4.33;;;2.30;;
60847;SDS011;46681;47.696;9.140;2023-04-25T07:30:13;2.70;;;2.07;;
60847;SDS011;46681;47.696;9.140;2023-04-25T07:45:14;2.80;;;2.23;;
60847;SDS011;46681;47.696;9.140;2023-04-25T07:51:21;3.67;;;2.10;;
60847;SDS011;46681;47.696;9.140;2023-04-25T07:54:47;2.50;;;2.30;;
60847;SDS011;46681;47.696;9.140;2023-04-25T07:57:45;3.10;;;2.13;;
60847;SDS011;46681;47.696;9.140;2023-04-25T08:03:11;4.63;;;1.97;;
60847;SDS011;46681;47.696;9.140;2023-04-25T08:06:03;3.37;;;1.93;;
60847;SDS011;46681;47.696;9.140;2023-04-25T08:09:00;3.57;;;2.00;;
60847;SDS011;46681;47.696;9.140;2023-04-25T08:11:39;2.43;;;2.13;;
60847;SDS011;46681;47.696;9.140;2023-04-25T08:14:13;2.87;;;2.00;;
60847;SDS011;46681;47.696;9.140;2023-04-25T08:17:10;3.30;;;1.90;;
60847;SDS011;46681;47.696;9.140;2023-04-25T08:29:33;1.63;;;1.53;;
60847;SDS011;46681;47.696;9.140;2023-04-25T08:32:14;1.97;;;1.83;;
60847;SDS011;46681;47.696;9.140;2023-04-25T08:38:02;2.50;;;1.63;;
60847;SDS011;46681;47.696;9.140;2023-04-25T08:44:00;1.80;;;1.70;;
60847;SDS011;46681;47.696;9.140;2023-04-25T08:46:47;2.80;;;1.93;;
60847;SDS011;46681;47.696;9.140;2023-04-25T08:55:51;3.10;;;1.70;;
60847;SDS011;46681;47.696;9.140;2023-04-25T08:58:23;3.17;;;1.90;;
60847;SDS011;46681;47.696;9.140;2023-04-25T09:01:27;2.73;;;1.80;;
60847;SDS011;46681;47.696;9.140;2023-04-25T09:04:18;2.27;;;1.80;;
60847;SDS011;46681;47.696;9.140;2023-04-25T09:07:25;2.20;;;1.57;;
60847;SDS011;46681;47.696;9.140;2023-04-25T09:09:52;1.40;;;1.30;;
60847;SDS011;46681;47.696;9.140;2023-04-25T09:12:36;2.00;;;1.80;;
60847;SDS011;46681;47.696;9.140;2023-04-25T09:15:23;2.30;;;1.70;;
60847;SDS011;46681;47.696;9.140;2023-04-25T09:18:12;2.23;;;1.73;;
60847;SDS011;46681;47.696;9.140;2023-04-25T09:21:09;1.60;;;1.50;;
60847;SDS011;46681;47.696;9.140;2023-04-25T09:29:34;1.87;;;1.77;;
60847;SDS011;46681;47.696;9.140;2023-04-25T09:32:35;2.60;;;1.80;;
60847;SDS011;46681;47.696;9.140;2023-04-25T09:35:12;2.03;;;1.93;;
60847;SDS011;46681;47.696;9.140;2023-04-25T09:41:07;1.53;;;1.43;;
60847;SDS011;46681;47.696;9.140;2023-04-25T09:43:44;2.00;;;1.37;;
60847;SDS011;46681;47.696;9.140;2023-04-25T09:46:32;1.63;;;1.50;;
60847;SDS011;46681;47.696;9.140;2023-04-25T09:49:47;1.70;;;1.60;;
60847;SDS011;46681;47.696;9.140;2023-04-25T09:52:21;1.87;;;1.50;;
60847;SDS011;46681;47.696;9.140;2023-04-25T09:55:11;2.10;;;1.50;;
60847;SDS011;46681;47.696;9.140;2023-04-25T09:57:51;1.50;;;1.40;;
60847;SDS011;46681;47.696;9.140;2023-04-25T10:00:41;1.90;;;1.40;;
60847;SDS011;46681;47.696;9.140;2023-04-25T10:03:08;1.70;;;1.60;;
60847;SDS011;46681;47.696;9.140;2023-04-25T10:05:53;1.40;;;1.30;;
60847;SDS011;46681;47.696;9.140;2023-04-25T10:08:27;1.40;;;1.30;;
60847;SDS011;46681;47.696;9.140;2023-04-25T10:11:10;1.70;;;1.60;;
60847;SDS011;46681;47.696;9.140;2023-04-25T10:13:41;1.17;;;1.10;;
60847;SDS011;46681;47.696;9.140;2023-04-25T10:16:23;2.33;;;1.20;;
60847;SDS011;46681;47.696;9.140;2023-04-25T10:19:14;2.80;;;1.47;;
60847;SDS011;46681;47.696;9.140;2023-04-25T10:21:52;1.73;;;1.43;;
60847;SDS011;46681;47.696;9.140;2023-04-25T10:24:42;1.10;;;1.10;;
60847;SDS011;46681;47.696;9.140;2023-04-25T10:30:03;1.10;;;1.10;;
60847;SDS011;46681;47.696;9.140;2023-04-25T10:32:45;1.30;;;1.20;;
60847;SDS011;46681;47.696;9.140;2023-04-25T10:35:30;1.13;;;1.13;;
60847;SDS011;46681;47.696;9.140;2023-04-25T10:38:14;1.60;;;1.20;;
60847;SDS011;46681;47.696;9.140;2023-04-25T10:58:36;1.00;;;1.00;;
60847;SDS011;46681;47.696;9.140;2023-04-25T11:04:38;1.10;;;1.10;;
60847;SDS011;46681;47.696;9.140;2023-04-25T11:10:17;1.00;;;1.00;;
60847;SDS011;46681;47.696;9.140;2023-04-25T11:13:04;0.90;;;0.90;;
60847;SDS011;46681;47.696;9.140;2023-04-25T11:15:33;1.00;;;0.90;;
60847;SDS011;46681;47.696;9.140;2023-04-25T11:18:08;1.00;;;1.00;;
60847;SDS011;46681;47.696;9.140;2023-04-25T11:20:56;0.70;;;0.70;;
60847;SDS011;46681;47.696;9.140;2023-04-25T11:23:33;1.00;;;1.00;;
60847;SDS011;46681;47.696;9.140;2023-04-25T11:28:48;0.87;;;0.87;;
60847;SDS011;46681;47.696;9.140;2023-04-25T11:31:29;0.80;;;0.80;;
60847;SDS011;46681;47.696;9.140;2023-04-25T11:34:20;1.23;;;1.03;;
60847;SDS011;46681;47.696;9.140;2023-04-25T11:39:29;0.70;;;0.70;;
60847;SDS011;46681;47.696;9.140;2023-04-25T11:42:22;1.07;;;1.07;;
60847;SDS011;46681;47.696;9.140;2023-04-25T11:45:08;0.80;;;0.80;;
60847;SDS011;46681;47.696;9.140;2023-04-25T11:47:38;0.80;;;0.80;;
60847;SDS011;46681;47.696;9.140;2023-04-25T11:53:22;0.70;;;0.70;;
60847;SDS011;46681;47.696;9.140;2023-04-25T11:55:54;0.63;;;0.63;;
60847;SDS011;46681;47.696;9.140;2023-04-25T11:58:33;0.80;;;0.80;;
60847;SDS011;46681;47.696;9.140;2023-04-25T12:04:30;0.70;;;0.70;;
60847;SDS011;46681;47.696;9.140;2023-04-25T12:10:19;0.60;;;0.60;;
60847;SDS011;46681;47.696;9.140;2023-04-25T12:13:23;2.77;;;1.00;;
60847;SDS011;46681;47.696;9.140;2023-04-25T12:16:17;1.03;;;0.80;;
60847;SDS011;46681;47.696;9.140;2023-04-25T12:19:06;0.70;;;0.70;;
60847;SDS011;46681;47.696;9.140;2023-04-25T12:24:35;0.80;;;0.80;;
60847;SDS011;46681;47.696;9.140;2023-04-25T12:27:27;0.63;;;0.63;;
60847;SDS011;46681;47.696;9.140;2023-04-25T12:32:50;1.17;;;0.80;;
60847;SDS011;46681;47.696;9.140;2023-04-25T12:35:51;0.83;;;0.77;;
60847;SDS011;46681;47.696;9.140;2023-04-25T12:38:50;0.60;;;0.60;;
60847;SDS011;46681;47.696;9.140;2023-04-25T12:41:41;1.80;;;0.80;;
60847;SDS011;46681;47.696;9.140;2023-04-25T12:44:24;0.57;;;0.57;;
60847;SDS011;46681;47.696;9.140;2023-04-25T12:46:59;0.93;;;0.60;;
60847;SDS011;46681;47.696;9.140;2023-04-25T12:49:58;0.60;;;0.60;;
60847;SDS011;46681;47.696;9.140;2023-04-25T12:55:45;0.70;;;0.60;;
60847;SDS011;46681;47.696;9.140;2023-04-25T12:58:21;0.70;;;0.70;;
60847;SDS011;46681;47.696;9.140;2023-04-25T13:00:54;1.90;;;0.63;;
60847;SDS011;46681;47.696;9.140;2023-04-25T13:03:26;0.50;;;0.50;;
60847;SDS011;46681;47.696;9.140;2023-04-25T13:05:54;1.60;;;0.67;;
60847;SDS011;46681;47.696;9.140;2023-04-25T13:08:43;3.00;;;0.80;;
60847;SDS011;46681;47.696;9.140;2023-04-25T13:11:23;0.53;;;0.50;;
60847;SDS011;46681;47.696;9.140;2023-04-25T13:13:52;1.73;;;0.50;;
60847;SDS011;46681;47.696;9.140;2023-04-25T13:19:42;0.50;;;0.50;;
60847;SDS011;46681;47.696;9.140;2023-04-25T13:22:22;2.00;;;0.60;;
60847;SDS011;46681;47.696;9.140;2023-04-25T13:24:58;0.77;;;0.57;;
60847;SDS011;46681;47.696;9.140;2023-04-25T13:27:40;0.70;;;0.70;;
60847;SDS011;46681;47.696;9.140;2023-04-25T13:30:23;0.60;;;0.60;;
60847;SDS011;46681;47.696;9.140;2023-04-25T13:33:38;1.07;;;0.70;;
60847;SDS011;46681;47.696;9.140;2023-04-25T13:36:20;1.63;;;0.73;;
60847;SDS011;46681;47.696;9.140;2023-04-25T13:39:23;2.03;;;0.93;;
60847;SDS011;46681;47.696;9.140;2023-04-25T13:42:00;2.43;;;1.30;;
60847;SDS011;46681;47.696;9.140;2023-04-25T13:48:33;1.13;;;0.83;;
60847;SDS011;46681;47.696;9.140;2023-04-25T13:54:59;0.90;;;0.90;;
60847;SDS011;46681;47.696;9.140;2023-04-25T14:01:07;1.37;;;1.00;;
60847;SDS011;46681;47.696;9.140;2023-04-25T14:04:02;3.20;;;0.90;;
60847;SDS011;46681;47.696;9.140;2023-04-25T14:06:36;0.87;;;0.87;;
60847;SDS011;46681;47.696;9.140;2023-04-25T14:12:20;0.67;;;0.67;;
60847;SDS011;46681;47.696;9.140;2023-04-25T14:14:59;0.67;;;0.67;;
60847;SDS011;46681;47.696;9.140;2023-04-25T14:18:22;5.40;;;0.90;;
60847;SDS011;46681;47.696;9.140;2023-04-25T14:23:55;1.13;;;0.93;;
60847;SDS011;46681;47.696;9.140;2023-04-25T14:26:30;0.73;;;0.73;;
60847;SDS011;46681;47.696;9.140;2023-04-25T14:29:28;0.80;;;0.80;;
60847;SDS011;46681;47.696;9.140;2023-04-25T14:31:54;1.87;;;0.87;;
60847;SDS011;46681;47.696;9.140;2023-04-25T14:34:32;3.00;;;1.03;;
60847;SDS011;46681;47.696;9.140;2023-04-25T14:37:10;0.80;;;0.80;;
60847;SDS011;46681;47.696;9.140;2023-04-25T14:55:48;0.80;;;0.80;;
60847;SDS011;46681;47.696;9.140;2023-04-25T14:58:16;0.60;;;0.60;;
60847;SDS011;46681;47.696;9.140;2023-04-25T15:00:49;1.30;;;0.80;;
60847;SDS011;46681;47.696;9.140;2023-04-25T15:03:52;0.80;;;0.80;;
60847;SDS011;46681;47.696;9.140;2023-04-25T15:06:40;1.13;;;0.80;;
60847;SDS011;46681;47.696;9.140;2023-04-25T15:12:36;1.27;;;0.90;;
60847;SDS011;46681;47.696;9.140;2023-04-25T15:15:21;1.27;;;0.97;;
60847;SDS011;46681;47.696;9.140;2023-04-25T15:21:19;0.80;;;0.80;;
60847;SDS011;46681;47.696;9.140;2023-04-25T15:24:30;0.80;;;0.80;;
60847;SDS011;46681;47.696;9.140;2023-04-25T15:27:30;1.53;;;0.90;;
60847;SDS011;46681;47.696;9.140;2023-04-25T15:33:19;0.97;;;0.97;;
60847;SDS011;46681;47.696;9.140;2023-04-25T15:35:58;1.63;;;0.90;;
60847;SDS011;46681;47.696;9.140;2023-04-25T15:38:54;2.57;;;0.90;;
60847;SDS011;46681;47.696;9.140;2023-04-25T15:41:31;1.17;;;1.03;;
60847;SDS011;46681;47.696;9.140;2023-04-25T15:44:06;1.43;;;0.90;;
60847;SDS011;46681;47.696;9.140;2023-04-25T15:46:36;1.10;;;1.00;;
60847;SDS011;46681;47.696;9.140;2023-04-25T15:49:38;3.60;;;0.73;;
60847;SDS011;46681;47.696;9.140;2023-04-25T15:55:29;1.00;;;1.00;;
60847;SDS011;46681;47.696;9.140;2023-04-25T15:58:32;2.50;;;1.00;;
60847;SDS011;46681;47.696;9.140;2023-04-25T16:01:25;0.90;;;0.90;;
60847;SDS011;46681;47.696;9.140;2023-04-25T16:10:35;0.93;;;0.93;;
60847;SDS011;46681;47.696;9.140;2023-04-25T16:13:12;1.10;;;1.00;;
60847;SDS011;46681;47.696;9.140;2023-04-25T16:16:03;0.90;;;0.90;;
60847;SDS011;46681;47.696;9.140;2023-04-25T16:22:00;1.70;;;0.87;;
60847;SDS011;46681;47.696;9.140;2023-04-25T16:31:22;1.60;;;1.47;;
60847;SDS011;46681;47.696;9.140;2023-04-25T16:34:31;1.53;;;1.20;;
60847;SDS011;46681;47.696;9.140;2023-04-25T16:40:18;0.83;;;0.80;;
60847;SDS011;46681;47.696;9.140;2023-04-25T16:42:45;1.73;;;0.90;;
60847;SDS011;46681;47.696;9.140;2023-04-25T16:45:14;2.50;;;1.10;;
60847;SDS011;46681;47.696;9.140;2023-04-25T16:47:45;3.27;;;0.90;;
60847;SDS011;46681;47.696;9.140;2023-04-25T16:50:17;1.00;;;1.00;;
60847;SDS011;46681;47.696;9.140;2023-04-25T16:55:50;1.77;;;0.80;;
60847;SDS011;46681;47.696;9.140;2023-04-25T16:58:27;2.30;;;0.87;;
60847;SDS011;46681;47.696;9.140;2023-04-25T17:01:06;1.17;;;1.00;;
60847;SDS011;46681;47.696;9.140;2023-04-25T17:04:17;1.13;;;1.00;;
60847;SDS011;46681;47.696;9.140;2023-04-25T17:06:54;0.80;;;0.80;;
60847;SDS011;46681;47.696;9.140;2023-04-25T17:15:52;0.93;;;0.83;;
60847;SDS011;46681;47.696;9.140;2023-04-25T17:18:36;0.97;;;0.97;;
60847;SDS011;46681;47.696;9.140;2023-04-25T17:21:10;1.83;;;1.73;;
60847;SDS011;46681;47.696;9.140;2023-04-25T17:24:06;2.07;;;1.97;;
60847;SDS011;46681;47.696;9.140;2023-04-25T17:26:54;2.23;;;2.00;;
60847;SDS011;46681;47.696;9.140;2023-04-25T17:36:23;1.80;;;1.70;;
60847;SDS011;46681;47.696;9.140;2023-04-25T17:39:01;1.70;;;1.60;;
60847;SDS011;46681;47.696;9.140;2023-04-25T17:41:36;2.20;;;2.00;;
60847;SDS011;46681;47.696;9.140;2023-04-25T17:44:30;2.03;;;1.93;;
60847;SDS011;46681;47.696;9.140;2023-04-25T17:47:34;1.80;;;1.70;;
60847;SDS011;46681;47.696;9.140;2023-04-25T17:50:19;1.80;;;1.70;;
60847;SDS011;46681;47.696;9.140;2023-04-25T17:52:50;4.13;;;2.93;;
60847;SDS011;46681;47.696;9.140;2023-04-25T17:55:32;3.80;;;2.37;;
60847;SDS011;46681;47.696;9.140;2023-04-25T17:58:04;3.37;;;2.03;;
60847;SDS011;46681;47.696;9.140;2023-04-25T18:00:48;2.40;;;2.03;;
60847;SDS011;46681;47.696;9.140;2023-04-25T18:03:36;2.00;;;1.90;;
60847;SDS011;46681;47.696;9.140;2023-04-25T18:06:24;1.97;;;1.87;;
60847;SDS011;46681;47.696;9.140;2023-04-25T18:08:57;2.57;;;1.97;;
60847;SDS011;46681;47.696;9.140;2023-04-25T18:11:38;1.93;;;1.80;;
60847;SDS011;46681;47.696;9.140;2023-04-25T18:14:21;2.17;;;1.70;;
60847;SDS011;46681;47.696;9.140;2023-04-25T18:16:56;1.70;;;1.60;;
60847;SDS011;46681;47.696;9.140;2023-04-25T18:19:34;1.73;;;1.63;;
60847;SDS011;46681;47.696;9.140;2023-04-25T18:22:10;1.77;;;1.67;;
60847;SDS011;46681;47.696;9.140;2023-04-25T18:24:46;1.50;;;1.40;;
60847;SDS011;46681;47.696;9.140;2023-04-25T18:27:25;1.60;;;1.50;;
60847;SDS011;46681;47.696;9.140;2023-04-25T18:29:59;1.57;;;1.47;;
60847;SDS011;46681;47.696;9.140;2023-04-25T18:32:50;1.37;;;1.27;;
60847;SDS011;46681;47.696;9.140;2023-04-25T18:35:27;1.70;;;1.60;;
60847;SDS011;46681;47.696;9.140;2023-04-25T18:38:03;1.57;;;1.20;;
60847;SDS011;46681;47.696;9.140;2023-04-25T18:40:58;1.10;;;1.10;;
60847;SDS011;46681;47.696;9.140;2023-04-25T18:43:28;1.57;;;1.47;;
60847;SDS011;46681;47.696;9.140;2023-04-25T18:45:57;1.33;;;1.20;;
60847;SDS011;46681;47.696;9.140;2023-04-25T18:48:35;2.23;;;1.30;;
60847;SDS011;46681;47.696;9.140;2023-04-25T18:51:08;1.20;;;1.20;;
60847;SDS011;46681;47.696;9.140;2023-04-25T18:53:43;1.50;;;1.40;;
60847;SDS011;46681;47.696;9.140;2023-04-25T18:56:25;1.30;;;1.30;;
60847;SDS011;46681;47.696;9.140;2023-04-25T18:59:30;1.20;;;1.20;;
60847;SDS011;46681;47.696;9.140;2023-04-25T19:05:01;1.17;;;1.17;;
60847;SDS011;46681;47.696;9.140;2023-04-25T19:07:45;1.20;;;1.20;;
60847;SDS011;46681;47.696;9.140;2023-04-25T19:10:21;1.27;;;1.27;;
60847;SDS011;46681;47.696;9.140;2023-04-25T19:12:50;1.10;;;1.10;;
60847;SDS011;46681;47.696;9.140;2023-04-25T19:15:18;1.10;;;1.10;;
60847;SDS011;46681;47.696;9.140;2023-04-25T19:17:58;1.10;;;1.10;;
60847;SDS011;46681;47.696;9.140;2023-04-25T19:20:36;1.10;;;1.10;;
60847;SDS011;46681;47.696;9.140;2023-04-25T19:23:30;0.93;;;0.93;;
60847;SDS011;46681;47.696;9.140;2023-04-25T19:26:03;1.00;;;1.00;;
60847;SDS011;46681;47.696;9.140;2023-04-25T19:28:42;1.30;;;1.07;;
60847;SDS011;46681;47.696;9.140;2023-04-25T19:31:23;1.43;;;1.33;;
60847;SDS011;46681;47.696;9.140;2023-04-25T19:33:50;0.90;;;0.90;;
60847;SDS011;46681;47.696;9.140;2023-04-25T19:36:27;1.13;;;0.93;;
60847;SDS011;46681;47.696;9.140;2023-04-25T19:39:03;1.20;;;1.10;;
60847;SDS011;46681;47.696;9.140;2023-04-25T19:44:25;1.17;;;1.17;;